createdAt,value
2023-02-26T00:00:44.471Z,1.96
2023-02-26T00:03:52.434Z,1.95
2023-02-26T00:06:57.389Z,2.06
2023-02-26T00:10:02.434Z,2.23
2023-02-26T00:13:04.892Z,2.27
2023-02-26T00:16:24.602Z,2.31
2023-02-26T00:19:27.004Z,2.30
2023-02-26T00:22:29.677Z,2.34
2023-02-26T00:25:31.874Z,2.31
2023-02-26T00:28:34.492Z,2.12
2023-02-26T00:31:37.059Z,2.11
2023-02-26T00:34:40.563Z,2.16
2023-02-26T00:38:06.252Z,2.16
2023-02-26T00:41:08.928Z,2.08
2023-02-26T00:44:11.431Z,1.94
2023-02-26T00:47:51.059Z,1.91
2023-02-26T00:51:01.381Z,1.91
2023-02-26T00:54:09.520Z,1.83
2023-02-26T00:57:11.716Z,1.78
2023-02-26T01:00:14.999Z,1.85
2023-02-26T01:03:17.458Z,1.86
2023-02-26T01:06:21.871Z,1.84
2023-02-26T01:09:37.654Z,1.97
2023-02-26T01:12:40.428Z,2.20
2023-02-26T01:15:47.797Z,2.22
2023-02-26T01:19:05.964Z,2.25
2023-02-26T01:22:33.692Z,2.39
2023-02-26T01:26:06.106Z,2.36
2023-02-26T01:29:08.571Z,2.35
2023-02-26T01:32:25.556Z,2.53
2023-02-26T01:35:52.745Z,2.36
2023-02-26T01:39:04.003Z,2.24
2023-02-26T01:42:15.236Z,2.26
2023-02-26T01:45:24.743Z,2.26
2023-02-26T01:48:54.179Z,2.13
2023-02-26T01:52:01.487Z,2.12
2023-02-26T01:55:05.589Z,1.98
2023-02-26T01:58:07.823Z,1.94
2023-02-26T02:01:10.092Z,2.11
2023-02-26T02:04:14.918Z,1.96
2023-02-26T02:07:18.722Z,1.98
2023-02-26T02:10:21.270Z,2.26
2023-02-26T02:13:43.800Z,2.06
2023-02-26T02:16:53.347Z,2.00
2023-02-26T02:20:16.781Z,2.22
2023-02-26T02:23:34.694Z,2.14
2023-02-26T02:26:59.605Z,1.79
2023-02-26T02:30:20.748Z,1.62
2023-02-26T02:33:28.816Z,1.75
2023-02-26T02:37:13.445Z,1.93
2023-02-26T02:40:20.164Z,1.91
2023-02-26T02:43:30.528Z,1.94
2023-02-26T02:46:35.684Z,2.14
2023-02-26T02:49:43.051Z,2.26
2023-02-26T02:52:50.838Z,2.06
2023-02-26T02:56:20.202Z,2.12
2023-02-26T02:59:24.522Z,1.99
2023-02-26T03:02:45.277Z,1.80
2023-02-26T03:05:47.840Z,1.90
2023-02-26T03:08:50.956Z,1.80
2023-02-26T03:11:53.121Z,1.94
2023-02-26T03:14:55.370Z,1.80
2023-02-26T03:18:09.230Z,1.77
2023-02-26T03:21:17.384Z,1.63
2023-02-26T03:24:32.415Z,1.58
2023-02-26T03:27:59.583Z,1.75
2023-02-26T03:31:09.853Z,1.60
2023-02-26T03:34:37.958Z,1.61
2023-02-26T03:37:43.763Z,1.40
2023-02-26T03:41:10.781Z,1.39
2023-02-26T03:44:19.472Z,1.45
2023-02-26T03:47:22.530Z,1.45
2023-02-26T03:50:31.353Z,1.58
2023-02-26T03:53:39.679Z,1.63
2023-02-26T03:56:47.035Z,1.75
2023-02-26T03:59:49.453Z,1.78
2023-02-26T04:03:07.639Z,1.81
2023-02-26T04:06:10.188Z,1.68
2023-02-26T04:09:13.122Z,1.65
2023-02-26T04:12:24.608Z,1.47
2023-02-26T04:15:26.795Z,1.70
2023-02-26T04:18:29.070Z,1.82
2023-02-26T04:21:31.259Z,1.67
2023-02-26T04:24:33.448Z,1.56
2023-02-26T04:27:35.758Z,1.47
2023-02-26T04:30:38.048Z,1.44
2023-02-26T04:33:40.302Z,1.33
2023-02-26T04:36:42.490Z,1.21
2023-02-26T04:39:44.646Z,1.19
2023-02-26T04:42:47.606Z,1.28
2023-02-26T04:45:50.166Z,1.16
2023-02-26T04:48:52.385Z,1.40
2023-02-26T04:51:54.641Z,1.49
2023-02-26T04:54:56.835Z,1.27
2023-02-26T04:57:59.042Z,1.38
2023-02-26T05:01:01.297Z,1.21
2023-02-26T05:04:03.528Z,1.11
2023-02-26T05:07:05.689Z,1.19
2023-02-26T05:10:08.593Z,1.27
2023-02-26T05:13:10.773Z,1.43
2023-02-26T05:16:13.086Z,1.55
2023-02-26T05:19:15.880Z,1.54
2023-02-26T05:22:18.601Z,1.47
2023-02-26T05:25:20.833Z,1.34
2023-02-26T05:28:23.874Z,1.33
2023-02-26T05:31:27.009Z,1.37
2023-02-26T05:34:29.314Z,1.20
2023-02-26T05:37:31.543Z,1.40
2023-02-26T05:40:33.824Z,1.46
2023-02-26T05:43:36.120Z,1.31
2023-02-26T05:46:38.435Z,1.27
2023-02-26T05:49:40.650Z,1.22
2023-02-26T05:52:42.931Z,1.50
2023-02-26T05:55:45.301Z,1.54
2023-02-26T05:58:47.565Z,1.41
2023-02-26T06:01:49.809Z,1.50
2023-02-26T06:04:51.947Z,1.46
2023-02-26T06:07:54.149Z,1.44
2023-02-26T06:10:56.437Z,1.67
2023-02-26T06:13:58.835Z,1.60
2023-02-26T06:17:01.013Z,1.48
2023-02-26T06:20:04.647Z,1.40
2023-02-26T06:23:06.810Z,1.32
2023-02-26T06:26:09.248Z,1.42
2023-02-26T06:29:11.402Z,1.53
2023-02-26T06:32:13.661Z,1.37
2023-02-26T06:35:15.970Z,1.44
2023-02-26T06:38:18.725Z,1.59
2023-02-26T06:41:20.916Z,1.57
2023-02-26T06:44:23.127Z,1.63
2023-02-26T06:47:25.339Z,1.61
2023-02-26T06:50:27.598Z,1.61
2023-02-26T06:53:29.772Z,1.85
2023-02-26T06:56:31.941Z,2.02
2023-02-26T06:59:34.160Z,1.95
2023-02-26T07:02:36.512Z,1.89
2023-02-26T07:05:38.780Z,2.07
2023-02-26T07:08:41.021Z,2.09
2023-02-26T07:11:43.173Z,2.24
2023-02-26T07:14:46.095Z,2.03
2023-02-26T07:17:48.350Z,1.84
2023-02-26T07:20:50.553Z,1.85
2023-02-26T07:23:52.754Z,2.00
2023-02-26T07:26:54.979Z,2.07
2023-02-26T07:29:57.390Z,1.96
2023-02-26T07:32:59.661Z,1.99
2023-02-26T07:36:02.072Z,1.94
2023-02-26T07:39:04.306Z,2.08
2023-02-26T07:42:06.636Z,1.97
2023-02-26T07:45:09.477Z,2.00
2023-02-26T07:48:11.613Z,2.20
2023-02-26T07:51:14.270Z,2.46
2023-02-26T07:54:16.561Z,2.69
2023-02-26T07:57:19.302Z,2.85
2023-02-26T08:00:21.736Z,3.03
2023-02-26T08:03:23.920Z,2.93
2023-02-26T08:06:26.414Z,2.83
2023-02-26T08:09:29.249Z,2.99
2023-02-26T08:12:31.485Z,2.81
2023-02-26T08:15:33.897Z,2.73
2023-02-26T08:18:36.056Z,2.88
2023-02-26T08:21:38.320Z,2.76
2023-02-26T08:24:40.753Z,2.70
2023-02-26T08:27:43.045Z,2.82
2023-02-26T08:30:45.234Z,2.71
2023-02-26T08:33:47.448Z,2.59
2023-02-26T08:36:50.392Z,2.85
2023-02-26T08:39:53.022Z,2.59
2023-02-26T08:42:55.171Z,2.81
2023-02-26T08:45:58.268Z,2.67
2023-02-26T08:49:00.512Z,2.57
2023-02-26T08:52:02.826Z,2.47
2023-02-26T08:55:05.294Z,2.48
2023-02-26T08:58:07.956Z,2.61
2023-02-26T09:01:10.229Z,2.64
2023-02-26T09:04:12.402Z,2.62
2023-02-26T09:07:14.596Z,2.72
2023-02-26T09:10:17.425Z,2.76
2023-02-26T09:13:19.610Z,2.64
2023-02-26T09:16:21.855Z,2.74
2023-02-26T09:19:24.031Z,2.79
2023-02-26T09:22:26.295Z,2.71
2023-02-26T09:25:28.535Z,2.86
2023-02-26T09:28:30.767Z,2.66
2023-02-26T09:31:33.944Z,2.96
2023-02-26T09:34:37.278Z,2.77
2023-02-26T09:37:40.237Z,2.78
2023-02-26T09:40:48.305Z,2.94
2023-02-26T09:44:11.827Z,3.03
2023-02-26T09:47:13.931Z,2.92
2023-02-26T09:50:23.154Z,3.01
2023-02-26T09:53:32.748Z,3.13
2023-02-26T09:56:36.982Z,3.30
2023-02-26T09:59:39.174Z,3.14
2023-02-26T10:02:55.652Z,3.03
2023-02-26T10:06:13.223Z,3.30
2023-02-26T10:09:45.954Z,3.33
2023-02-26T10:12:49.652Z,3.38
2023-02-26T10:15:52.470Z,3.42
2023-02-26T10:19:00.999Z,3.62
2023-02-26T10:22:18.206Z,3.70
2023-02-26T10:25:23.066Z,3.62
2023-02-26T10:28:50.325Z,3.66
2023-02-26T10:32:00.593Z,3.61
2023-02-26T10:35:09.147Z,3.73
2023-02-26T10:38:14.788Z,3.34
2023-02-26T10:41:21.181Z,3.62
2023-02-26T10:44:32.193Z,3.58
2023-02-26T10:47:44.583Z,3.62
2023-02-26T10:50:52.692Z,3.69
2023-02-26T10:53:58.529Z,3.72
2023-02-26T10:57:01.301Z,3.69
2023-02-26T11:00:06.051Z,3.53
2023-02-26T11:03:10.885Z,3.64
2023-02-26T11:06:19.997Z,3.81
2023-02-26T11:09:29.287Z,3.67
2023-02-26T11:12:32.672Z,3.87
2023-02-26T11:15:35.622Z,4.13
2023-02-26T11:18:44.591Z,4.07
2023-02-26T11:21:48.024Z,4.06
2023-02-26T11:24:51.516Z,4.07
2023-02-26T11:28:02.274Z,4.00
2023-02-26T11:31:11.281Z,3.93
2023-02-26T11:34:13.640Z,4.10
2023-02-26T11:37:21.073Z,4.22
2023-02-26T11:40:26.844Z,4.10
2023-02-26T11:43:37.195Z,4.06
2023-02-26T11:46:45.364Z,4.04
2023-02-26T11:49:56.653Z,3.79
2023-02-26T11:53:31.891Z,3.68
2023-02-26T11:56:42.801Z,3.90
2023-02-26T11:59:48.925Z,4.20
2023-02-26T12:02:51.996Z,4.16
2023-02-26T12:05:54.447Z,4.37
2023-02-26T12:08:56.962Z,4.16
2023-02-26T12:12:14.053Z,4.31
2023-02-26T12:15:29.110Z,4.16
2023-02-26T12:18:40.783Z,4.25
2023-02-26T12:21:58.269Z,4.38
2023-02-26T12:25:21.994Z,4.78
2023-02-26T12:28:30.277Z,4.79
2023-02-26T12:31:53.296Z,4.90
2023-02-26T12:35:10.649Z,4.81
2023-02-26T12:38:20.929Z,4.38
2023-02-26T12:41:33.397Z,4.32
2023-02-26T12:44:57.062Z,4.17
2023-02-26T12:47:59.378Z,4.08
2023-02-26T12:51:26.371Z,4.16
2023-02-26T12:54:54.306Z,3.98
2023-02-26T12:58:03.029Z,3.92
2023-02-26T13:01:56.040Z,3.89
2023-02-26T13:05:12.947Z,3.93
2023-02-26T13:08:27.874Z,3.95
2023-02-26T13:11:55.729Z,3.99
2023-02-26T13:15:36.999Z,4.08
2023-02-26T13:19:11.661Z,4.00
2023-02-26T13:22:25.587Z,4.04
2023-02-26T13:25:51.840Z,4.10
2023-02-26T13:29:04.728Z,4.06
2023-02-26T13:32:14.065Z,3.95
2023-02-26T13:35:26.102Z,3.99
2023-02-26T13:38:38.520Z,4.05
2023-02-26T13:42:10.832Z,4.07
2023-02-26T13:45:48.355Z,4.00
2023-02-26T13:49:04.104Z,3.91
2023-02-26T13:52:23.491Z,3.89
2023-02-26T13:55:47.431Z,3.81
2023-02-26T13:58:55.441Z,3.80
2023-02-26T14:02:06.732Z,3.73
2023-02-26T14:05:28.981Z,3.86
2023-02-26T14:08:40.032Z,3.89
2023-02-26T14:11:46.092Z,3.89
2023-02-26T14:15:00.621Z,3.88
2023-02-26T14:18:06.774Z,3.79
2023-02-26T14:21:36.893Z,3.88
2023-02-26T14:24:44.556Z,3.84
2023-02-26T14:27:49.486Z,3.84
2023-02-26T14:31:17.698Z,3.88
2023-02-26T14:34:36.686Z,3.91
2023-02-26T14:37:40.371Z,3.82
2023-02-26T14:40:55.862Z,3.83
2023-02-26T14:44:31.519Z,3.83
2023-02-26T14:47:34.400Z,3.88
2023-02-26T14:51:01.464Z,3.89
2023-02-26T14:54:19.395Z,3.86
2023-02-26T14:57:26.056Z,3.86
2023-02-26T15:00:49.882Z,3.87
2023-02-26T15:04:19.042Z,3.99
2023-02-26T15:07:36.715Z,3.99
2023-02-26T15:10:57.674Z,3.87
2023-02-26T15:14:24.553Z,3.80
2023-02-26T15:17:44.824Z,3.84
2023-02-26T15:21:24.909Z,3.82
2023-02-26T15:24:29.728Z,3.82
2023-02-26T15:27:32.536Z,3.69
2023-02-26T15:30:35.428Z,3.66
2023-02-26T15:33:37.893Z,3.70
2023-02-26T15:36:44.632Z,3.63
2023-02-26T15:39:49.865Z,3.62
2023-02-26T15:42:54.592Z,3.60
2023-02-26T15:45:58.615Z,3.63
2023-02-26T15:49:19.393Z,3.57
2023-02-26T15:52:23.417Z,3.53
2023-02-26T15:55:26.160Z,3.51
2023-02-26T15:58:35.285Z,3.50
2023-02-26T16:01:40.615Z,3.48
2023-02-26T16:04:43.819Z,3.50
2023-02-26T16:07:47.030Z,3.47
2023-02-26T16:10:49.804Z,3.48
2023-02-26T16:13:53.396Z,3.46
2023-02-26T16:16:56.824Z,3.42
2023-02-26T16:20:01.948Z,3.47
2023-02-26T16:23:07.410Z,3.40
2023-02-26T16:26:15.369Z,3.39
2023-02-26T16:29:38.014Z,3.38
2023-02-26T16:32:41.169Z,3.33
2023-02-26T16:35:47.736Z,3.35
2023-02-26T16:38:58.404Z,3.39
2023-02-26T16:42:22.972Z,3.31
2023-02-26T16:45:42.126Z,3.31
2023-02-26T16:48:58.042Z,3.35
2023-02-26T16:52:01.066Z,3.25
2023-02-26T16:55:05.136Z,3.23
2023-02-26T16:58:11.971Z,3.13
2023-02-26T17:01:18.993Z,3.18
2023-02-26T17:04:25.802Z,3.12
2023-02-26T17:07:36.608Z,3.06
2023-02-26T17:10:44.520Z,3.03
2023-02-26T17:13:58.778Z,3.00
2023-02-26T17:17:01.011Z,2.93
2023-02-26T17:20:04.181Z,2.98
2023-02-26T17:23:09.293Z,2.92
2023-02-26T17:26:11.921Z,2.98
2023-02-26T17:29:23.019Z,2.88
2023-02-26T17:32:27.113Z,2.89
2023-02-26T17:35:31.314Z,2.83
2023-02-26T17:38:34.009Z,2.82
2023-02-26T17:41:36.526Z,2.89
2023-02-26T17:44:38.845Z,2.82
2023-02-26T17:47:41.787Z,2.87
2023-02-26T17:50:54.931Z,2.85
2023-02-26T17:54:00.706Z,2.72
2023-02-26T17:57:03.398Z,2.68
2023-02-26T18:00:12.946Z,2.64
2023-02-26T18:03:15.910Z,2.62
2023-02-26T18:06:18.524Z,2.62
2023-02-26T18:09:21.072Z,2.62
2023-02-26T18:12:23.397Z,2.44
2023-02-26T18:15:26.490Z,2.38
2023-02-26T18:18:29.496Z,2.27
2023-02-26T18:21:32.199Z,2.23
2023-02-26T18:24:34.796Z,2.21
2023-02-26T18:27:37.462Z,2.25
2023-02-26T18:30:41.711Z,2.26
2023-02-26T18:33:44.600Z,2.36
2023-02-26T18:36:49.312Z,2.43
2023-02-26T18:39:52.900Z,2.40
2023-02-26T18:42:55.542Z,2.39
2023-02-26T18:46:02.116Z,2.32
2023-02-26T18:49:04.738Z,2.23
2023-02-26T18:52:07.320Z,2.22
2023-02-26T18:55:12.133Z,2.25
2023-02-26T18:58:14.680Z,2.44
2023-02-26T19:01:17.242Z,2.78
2023-02-26T19:04:19.712Z,2.84
2023-02-26T19:07:22.174Z,2.70
2023-02-26T19:10:24.481Z,2.60
2023-02-26T19:13:27.542Z,2.51
2023-02-26T19:16:34.973Z,2.23
2023-02-26T19:19:37.577Z,2.34
2023-02-26T19:22:40.431Z,2.21
2023-02-26T19:25:43.171Z,2.11
2023-02-26T19:28:45.670Z,2.08
2023-02-26T19:31:49.335Z,2.17
2023-02-26T19:34:52.534Z,2.20
2023-02-26T19:37:55.025Z,2.39
2023-02-26T19:40:59.223Z,2.27
2023-02-26T19:44:01.751Z,2.23
2023-02-26T19:47:04.310Z,2.34
2023-02-26T19:50:08.293Z,2.30
2023-02-26T19:53:11.616Z,2.15
2023-02-26T19:56:14.279Z,2.24
2023-02-26T19:59:17.423Z,2.17
2023-02-26T20:02:21.183Z,2.18
2023-02-26T20:05:23.923Z,2.11
2023-02-26T20:08:29.388Z,1.98
2023-02-26T20:11:31.865Z,1.95
2023-02-26T20:14:34.881Z,1.98
2023-02-26T20:17:38.483Z,1.86
2023-02-26T20:20:41.728Z,1.86
2023-02-26T20:23:44.969Z,1.87
2023-02-26T20:26:49.018Z,1.77
2023-02-26T20:29:51.561Z,1.76
2023-02-26T20:32:53.996Z,1.72
2023-02-26T20:35:56.572Z,1.63
2023-02-26T20:38:59.097Z,1.59
2023-02-26T20:42:01.993Z,1.42
2023-02-26T20:45:07.929Z,1.37
2023-02-26T20:48:10.778Z,1.30
2023-02-26T20:51:13.032Z,1.30
2023-02-26T20:54:17.708Z,1.15
2023-02-26T20:57:19.906Z,1.11
2023-02-26T21:00:23.216Z,1.07
2023-02-26T21:03:25.747Z,1.03
2023-02-26T21:06:28.372Z,0.91
2023-02-26T21:09:30.891Z,0.84
2023-02-26T21:12:33.582Z,0.71
2023-02-26T21:15:36.397Z,0.83
2023-02-26T21:18:38.852Z,0.70
2023-02-26T21:21:41.342Z,0.69
2023-02-26T21:24:44.254Z,0.70
2023-02-26T21:27:46.596Z,0.67
2023-02-26T21:30:52.877Z,0.63
2023-02-26T21:33:55.085Z,0.61
2023-02-26T21:37:00.162Z,0.57
2023-02-26T21:40:02.380Z,0.61
2023-02-26T21:43:04.820Z,0.53
2023-02-26T21:46:07.159Z,0.50
2023-02-26T21:49:09.409Z,0.44
2023-02-26T21:52:12.068Z,0.43
2023-02-26T21:55:14.294Z,0.47
2023-02-26T21:58:16.595Z,0.38
2023-02-26T22:01:18.839Z,0.37
2023-02-26T22:04:21.877Z,0.28
2023-02-26T22:07:24.051Z,0.32
2023-02-26T22:10:26.258Z,0.25
2023-02-26T22:13:28.653Z,0.24
2023-02-26T22:16:30.963Z,0.21
2023-02-26T22:19:33.230Z,0.20
2023-02-26T22:22:37.172Z,0.08
2023-02-26T22:25:39.407Z,0.04
2023-02-26T22:28:42.372Z,0.14
2023-02-26T22:31:44.591Z,0.04
2023-02-26T22:34:46.837Z,0.07
2023-02-26T22:37:49.117Z,0.01
2023-02-26T22:40:51.484Z,-0.07
2023-02-26T22:43:54.988Z,-0.08
2023-02-26T22:46:57.187Z,-0.08
2023-02-26T22:49:59.349Z,-0.11
2023-02-26T22:53:01.679Z,-0.19
2023-02-26T22:56:03.928Z,-0.25
2023-02-26T22:59:06.258Z,-0.24
2023-02-26T23:02:08.586Z,-0.35
2023-02-26T23:05:11.192Z,-0.38
2023-02-26T23:08:13.340Z,-0.37
2023-02-26T23:11:15.637Z,-0.46
2023-02-26T23:14:18.128Z,-0.55
2023-02-26T23:17:20.287Z,-0.53
2023-02-26T23:20:22.520Z,-0.57
2023-02-26T23:23:24.815Z,-0.65
2023-02-26T23:26:27.228Z,-0.58
2023-02-26T23:29:29.432Z,-0.77
2023-02-26T23:32:31.765Z,-0.72
2023-02-26T23:35:35.181Z,-0.62
2023-02-26T23:38:37.650Z,-0.59
2023-02-26T23:41:39.841Z,-0.63
2023-02-26T23:44:42.004Z,-0.66
2023-02-26T23:47:44.211Z,-0.72
2023-02-26T23:50:48.774Z,-0.73
2023-02-26T23:53:51.051Z,-0.83
2023-02-26T23:56:53.262Z,-0.81
2023-02-26T23:59:55.451Z,-0.79
